Time;durP1;ratioP1;P1;durP2;ratioP2;P2;SDS_P1;SDS_P2;PMS_P1;PMS_P2;Temp;Humidity;BMP_temperature;BMP_pressure;BME280_temperature;BME280_humidity;BME280_pressure;Samples;Min_cycle;Max_cycle;Signal;HPM_P1;HPM_P2
2021/07/12 00:00:28;;;;;;;7.15;5.00;;;;;;;15.80;81.07;96203.34;5010844;28;20049;-75
2021/07/12 00:02:56;;;;;;;9.15;4.90;;;;;;;15.77;81.57;96208.78;5007565;28;20066;-76
2021/07/12 00:05:23;;;;;;;7.88;4.70;;;;;;;15.74;81.66;96193.78;5010604;28;20103;-77
2021/07/12 00:07:51;;;;;;;17.55;8.68;;;;;;;15.72;81.71;96198.84;5004696;28;20053;-76
2021/07/12 00:10:19;;;;;;;9.20;5.45;;;;;;;15.68;81.67;96200.69;5009865;28;20077;-76
2021/07/12 00:12:47;;;;;;;8.25;4.93;;;;;;;15.65;81.87;96198.66;5011193;28;20042;-76
2021/07/12 00:15:16;;;;;;;8.52;5.50;;;;;;;15.62;82.12;96200.16;5010886;28;20053;-75
2021/07/12 00:17:43;;;;;;;9.20;5.57;;;;;;;15.62;82.35;96204.84;5011230;28;20115;-76
2021/07/12 00:20:12;;;;;;;8.00;5.50;;;;;;;15.62;82.24;96194.66;5010810;28;20053;-75
2021/07/12 00:22:39;;;;;;;9.73;5.40;;;;;;;15.59;82.25;96200.03;5011248;28;20050;-75
2021/07/12 00:25:09;;;;;;;6.68;4.75;;;;;;;15.56;82.30;96195.28;5010855;28;20058;-76
2021/07/12 00:27:36;;;;;;;7.97;5.45;;;;;;;15.59;81.91;96200.03;5010985;28;20509;-75
2021/07/12 00:30:05;;;;;;;6.75;4.57;;;;;;;15.61;80.90;96186.78;5010903;28;20050;-72
2021/07/12 00:32:32;;;;;;;10.57;4.80;;;;;;;15.56;81.31;96189.78;5011091;28;20056;-76
2021/07/12 00:34:59;;;;;;;7.95;4.80;;;;;;;15.56;80.75;96187.03;5011053;28;20452;-76
2021/07/12 00:37:26;;;;;;;8.68;4.90;;;;;;;15.53;80.81;96194.03;5010600;28;20050;-76
2021/07/12 00:39:52;;;;;;;7.30;4.43;;;;;;;15.53;80.64;96190.50;5010637;28;20624;-75
2021/07/12 00:42:19;;;;;;;7.78;4.78;;;;;;;15.49;80.80;96189.59;5010136;28;20649;-75
2021/07/12 00:44:45;;;;;;;10.13;4.55;;;;;;;15.46;80.95;96190.31;5011155;28;20057;-76
2021/07/12 00:47:12;;;;;;;7.20;4.82;;;;;;;15.42;81.23;96194.91;5010594;28;20050;-75
2021/07/12 00:49:38;;;;;;;9.52;4.45;;;;;;;15.38;80.96;96176.41;5011064;28;20041;-75
2021/07/12 00:52:07;;;;;;;8.93;4.43;;;;;;;15.36;81.17;96175.19;5010540;28;20046;-74
2021/07/12 00:54:33;;;;;;;11.63;5.63;;;;;;;15.32;81.19;96168.78;5011062;28;20042;-76
2021/07/12 00:57:02;;;;;;;7.85;5.55;;;;;;;15.33;81.35;96171.19;5013194;28;20437;-75
2021/07/12 00:59:28;;;;;;;10.48;6.32;;;;;;;15.32;81.54;96166.84;5014187;28;20040;-74
2021/07/12 01:01:55;;;;;;;8.18;5.63;;;;;;;15.32;81.73;96169.59;5014578;28;20046;-75
2021/07/12 01:04:22;;;;;;;7.00;4.88;;;;;;;15.34;81.67;96166.47;5013979;28;20046;-76
2021/07/12 01:06:50;;;;;;;7.43;5.13;;;;;;;15.37;81.15;96171.28;5014350;28;20128;-75
2021/07/12 01:09:18;;;;;;;8.55;5.10;;;;;;;15.35;80.59;96163.41;5013426;28;20468;-74
2021/07/12 01:11:53;;;;;;;7.00;4.72;;;;;;;15.35;80.26;96171.63;5014313;28;20048;-75
2021/07/12 01:14:35;;;;;;;6.78;5.28;;;;;;;15.30;80.33;96171.91;5013719;28;20042;-75
2021/07/12 01:17:10;;;;;;;9.20;5.13;;;;;;;15.19;80.34;96164.50;5013877;28;20045;-71
2021/07/12 01:20:06;;;;;;;9.30;5.53;;;;;;;15.18;80.73;96163.72;5014369;28;20053;-74
2021/07/12 01:22:57;;;;;;;9.30;6.10;;;;;;;15.11;81.45;96152.56;5002776;28;20038;-75
2021/07/12 01:26:07;;;;;;;9.30;5.65;;;;;;;15.10;81.87;96156.47;5005128;28;20053;-76
2021/07/12 01:29:06;;;;;;;9.90;5.75;;;;;;;15.14;81.20;96146.41;4998552;28;20485;-77
2021/07/12 01:32:03;;;;;;;8.85;5.78;;;;;;;15.14;81.04;96146.41;5002793;28;20066;-75
2021/07/12 01:34:37;;;;;;;12.27;6.88;;;;;;;15.10;81.38;96145.50;4997922;28;20042;-74
2021/07/12 01:37:09;;;;;;;8.30;5.82;;;;;;;15.12;81.20;96143.19;5005084;28;20075;-73
2021/07/12 01:39:44;;;;;;;10.48;6.75;;;;;;;15.09;81.71;96132.94;4993540;28;20050;-75
2021/07/12 01:42:18;;;;;;;11.15;6.10;;;;;;;15.07;81.73;96135.22;4993828;28;20062;-74
2021/07/12 01:44:53;;;;;;;11.38;6.45;;;;;;;15.04;81.84;96130.47;4994129;28;20069;-75
2021/07/12 01:47:30;;;;;;;10.57;6.38;;;;;;;14.98;82.20;96127.19;5012413;28;20133;-76
2021/07/12 01:50:04;;;;;;;9.80;6.72;;;;;;;14.96;82.16;96129.47;5013827;28;20042;-74
2021/07/12 01:52:35;;;;;;;10.85;7.15;;;;;;;14.94;82.26;96123.53;5013316;28;20038;-74
2021/07/12 01:55:03;;;;;;;12.50;6.57;;;;;;;14.96;82.26;96125.94;5013351;28;20061;-75
2021/07/12 01:57:33;;;;;;;14.32;7.68;;;;;;;15.00;81.64;96121.34;4997082;28;20382;-74
2021/07/12 02:00:05;;;;;;;17.42;9.63;;;;;;;15.02;82.11;96121.78;5013413;28;20057;-75
2021/07/12 02:02:33;;;;;;;26.42;11.73;;;;;;;14.94;81.84;96125.50;4997424;28;20394;-75
2021/07/12 02:05:04;;;;;;;23.75;12.20;;;;;;;14.97;82.11;96127.50;5013296;28;20387;-75
2021/07/12 02:07:33;;;;;;;26.17;13.73;;;;;;;14.96;82.50;96128.66;5012213;28;20516;-75
2021/07/12 02:10:02;;;;;;;26.20;14.02;;;;;;;14.97;82.38;96130.25;5012974;28;20045;-75
2021/07/12 02:12:32;;;;;;;47.60;14.07;;;;;;;14.93;82.77;96119.22;5012564;28;20049;-74
2021/07/12 02:15:01;;;;;;;34.55;13.00;;;;;;;14.88;82.63;96116.72;5012925;28;20046;-75
2021/07/12 02:17:28;;;;;;;29.05;14.88;;;;;;;14.88;82.68;96108.50;5012662;28;20423;-75
2021/07/12 02:19:59;;;;;;;26.25;13.60;;;;;;;14.84;82.99;96111.16;5013013;28;20382;-75
2021/07/12 02:22:28;;;;;;;43.60;12.55;;;;;;;14.83;83.01;96106.81;5012737;28;20049;-75
2021/07/12 02:24:57;;;;;;;24.10;12.25;;;;;;;14.80;83.26;96104.75;5012983;28;20413;-75
2021/07/12 02:27:24;;;;;;;26.90;10.80;;;;;;;14.77;83.31;96102.75;5012392;28;20052;-74
2021/07/12 02:29:52;;;;;;;21.52;10.27;;;;;;;14.73;83.61;96099.09;5012817;28;20053;-75
2021/07/12 02:32:20;;;;;;;28.58;12.35;;;;;;;14.77;83.72;96105.47;5012231;28;20114;-74
2021/07/12 02:34:48;;;;;;;30.33;11.15;;;;;;;14.75;83.85;96096.81;5012907;28;20049;-76
2021/07/12 02:37:16;;;;;;;23.75;9.90;;;;;;;14.75;83.74;96096.81;5012219;28;20050;-76
2021/07/12 02:39:46;;;;;;;16.75;10.13;;;;;;;14.68;83.77;96093.88;5012047;28;20053;-75
2021/07/12 02:42:13;;;;;;;25.70;10.13;;;;;;;14.72;83.75;96092.03;5012112;28;20092;-75
2021/07/12 02:44:43;;;;;;;29.90;9.77;;;;;;;14.67;83.70;96084.06;5012508;28;20052;-76
2021/07/12 02:47:10;;;;;;;21.40;9.77;;;;;;;14.60;83.96;96083.84;5012250;28;20054;-74
2021/07/12 02:49:37;;;;;;;20.25;9.63;;;;;;;14.59;84.24;96082.28;5012573;28;20074;-74
2021/07/12 02:52:15;;;;;;;17.10;9.38;;;;;;;14.61;84.48;96080.75;5012062;28;20046;-74
2021/07/12 02:54:45;;;;;;;20.98;11.18;;;;;;;14.65;84.66;96080.06;5012377;28;20496;-75
2021/07/12 02:57:12;;;;;;;15.50;9.98;;;;;;;14.66;84.87;96076.97;5011987;28;20084;-75
2021/07/12 02:59:38;;;;;;;25.88;11.40;;;;;;;14.71;84.45;96084.16;5012259;28;20049;-74
2021/07/12 03:02:05;;;;;;;34.72;11.13;;;;;;;14.70;84.58;96083.34;5011841;28;20050;-75
2021/07/12 03:04:32;;;;;;;16.67;10.10;;;;;;;14.75;84.81;96083.09;5012253;28;20045;-76
2021/07/12 03:07:02;;;;;;;21.00;10.52;;;;;;;14.79;84.29;96080.44;5012255;28;20061;-76
2021/07/12 03:09:35;;;;;;;25.80;11.20;;;;;;;14.79;84.35;96086.72;5011324;28;20038;-75
2021/07/12 03:12:13;;;;;;;27.13;11.18;;;;;;;14.78;84.79;96078.88;5011653;28;20509;-70
2021/07/12 03:14:46;;;;;;;27.73;11.52;;;;;;;14.74;84.71;96084.25;5011967;28;20069;-75
2021/07/12 03:17:14;;;;;;;27.90;11.50;;;;;;;14.72;85.29;96075.59;5011768;28;20049;-75
2021/07/12 03:19:42;;;;;;;25.92;12.98;;;;;;;14.69;85.16;96081.75;5011240;28;20511;-75
2021/07/12 03:22:12;;;;;;;19.75;12.35;;;;;;;14.78;85.29;96090.63;5011342;28;20181;-74
2021/07/12 03:24:41;;;;;;;23.75;12.38;;;;;;;14.81;85.00;96087.16;5011765;28;20468;-74
2021/07/12 03:27:13;;;;;;;18.70;12.38;;;;;;;14.84;85.36;96089.22;5011358;28;20042;-76
2021/07/12 03:29:40;;;;;;;17.50;11.93;;;;;;;14.77;85.32;96083.56;5011821;28;20089;-74
2021/07/12 03:32:09;;;;;;;18.50;11.60;;;;;;;14.76;85.39;96087.41;5011418;28;20501;-76
2021/07/12 03:34:37;;;;;;;17.40;11.02;;;;;;;14.82;85.21;96085.22;5011598;28;20117;-75
2021/07/12 03:37:04;;;;;;;17.13;10.55;;;;;;;14.86;85.26;96092.38;5011121;28;20046;-74
2021/07/12 03:39:32;;;;;;;23.17;11.40;;;;;;;14.86;85.31;96097.88;5010902;28;20048;-75
2021/07/12 03:41:59;;;;;;;22.23;10.63;;;;;;;14.85;85.38;96095.50;5011523;28;20053;-75
2021/07/12 03:44:27;;;;;;;14.98;9.25;;;;;;;14.81;85.08;96100.88;5011079;28;20046;-75
2021/07/12 03:46:54;;;;;;;13.52;8.80;;;;;;;14.84;84.78;96094.69;5011534;28;20069;-75
2021/07/12 03:49:21;;;;;;;19.75;9.27;;;;;;;14.84;84.44;96097.44;5011187;28;20143;-75
2021/07/12 03:51:52;;;;;;;14.10;9.05;;;;;;;14.83;84.87;96095.84;5011259;28;20046;-75
2021/07/12 03:54:19;;;;;;;21.63;9.63;;;;;;;14.85;84.72;96090.00;5011124;28;20119;-74
2021/07/12 03:56:46;;;;;;;13.60;9.77;;;;;;;14.86;84.96;96086.91;5011493;28;20050;-76
2021/07/12 03:59:12;;;;;;;16.48;8.90;;;;;;;14.88;84.55;96092.84;5011018;28;20050;-74
2021/07/12 04:01:40;;;;;;;16.67;9.23;;;;;;;14.86;84.20;96086.91;5011383;28;20046;-75
2021/07/12 04:04:06;;;;;;;15.68;9.07;;;;;;;14.92;84.51;96083.91;5010995;28;20050;-74
2021/07/12 04:06:33;;;;;;;16.63;10.32;;;;;;;14.92;84.81;96084.69;5009717;28;20052;-75
2021/07/12 04:09:00;;;;;;;14.02;9.13;;;;;;;14.96;84.78;96085.59;5011135;28;20045;-75
2021/07/12 04:11:32;;;;;;;14.98;9.48;;;;;;;14.97;84.52;96086.38;5010784;28;20064;-75
2021/07/12 04:13:59;;;;;;;11.90;8.68;;;;;;;14.92;84.61;96094.88;5011332;28;20050;-74
2021/07/12 04:16:25;;;;;;;14.65;8.27;;;;;;;14.92;84.77;96089.38;5010784;28;20049;-75
2021/07/12 04:18:53;;;;;;;15.38;9.13;;;;;;;14.87;84.54;96085.75;5011378;28;20054;-75
2021/07/12 04:21:20;;;;;;;13.90;8.07;;;;;;;14.81;84.33;96078.94;5010712;28;20516;-74
2021/07/12 04:23:47;;;;;;;12.02;7.68;;;;;;;14.88;84.42;96075.63;5011223;28;20050;-74
2021/07/12 04:26:13;;;;;;;16.05;9.05;;;;;;;14.87;84.46;96076.72;5010873;28;20058;-75
2021/07/12 04:28:40;;;;;;;16.70;9.43;;;;;;;14.90;84.70;96078.00;5011407;28;20045;-74
2021/07/12 04:31:06;;;;;;;13.13;8.55;;;;;;;14.96;84.46;96073.84;5011716;28;20057;-76
2021/07/12 04:33:33;;;;;;;11.43;8.27;;;;;;;14.98;84.12;96071.53;5015101;28;20069;-76
2021/07/12 04:36:00;;;;;;;11.52;7.90;;;;;;;15.04;84.16;96079.16;5014875;28;20655;-76
2021/07/12 04:38:27;;;;;;;9.05;6.57;;;;;;;15.01;83.58;96081.78;5014468;28;20046;-76
2021/07/12 04:40:53;;;;;;;9.13;6.40;;;;;;;14.95;83.52;96072.25;5014509;28;20061;-76
2021/07/12 04:43:20;;;;;;;9.95;6.82;;;;;;;14.96;83.91;96068.34;5014290;28;20053;-75
2021/07/12 04:45:46;;;;;;;8.07;6.20;;;;;;;14.97;83.97;96070.72;5014594;28;20405;-76
2021/07/12 04:48:13;;;;;;;9.20;6.25;;;;;;;14.97;84.13;96069.94;5014402;28;20042;-75
2021/07/12 04:50:39;;;;;;;10.93;7.40;;;;;;;15.06;83.77;96062.34;5014766;28;20061;-76
2021/07/12 04:53:07;;;;;;;8.98;6.60;;;;;;;15.12;83.62;96049.94;5014214;28;20050;-75
2021/07/12 04:55:34;;;;;;;7.70;5.70;;;;;;;15.18;83.40;96069.69;5014424;28;20049;-76
2021/07/12 04:58:00;;;;;;;13.30;7.68;;;;;;;15.15;83.07;96071.19;5014423;28;20046;-75
2021/07/12 05:00:27;;;;;;;12.18;7.25;;;;;;;15.11;83.64;96062.88;5014166;28;20041;-75
2021/07/12 05:02:53;;;;;;;11.02;7.35;;;;;;;15.08;83.67;96063.56;5014521;28;20053;-76
2021/07/12 05:05:20;;;;;;;13.60;8.55;;;;;;;15.12;84.03;96069.16;5014022;28;20049;-76
2021/07/12 05:07:46;;;;;;;14.05;7.88;;;;;;;15.20;84.14;96068.19;5014264;28;20038;-75
2021/07/12 05:10:15;;;;;;;13.43;8.13;;;;;;;15.26;83.94;96065.97;5013937;28;20045;-75
2021/07/12 05:12:41;;;;;;;15.43;8.60;;;;;;;15.28;84.07;96060.91;5014423;28;20493;-76
2021/07/12 05:15:09;;;;;;;12.52;8.13;;;;;;;15.24;83.90;96074.53;5013792;28;20048;-74
2021/07/12 05:17:36;;;;;;;10.98;7.50;;;;;;;15.26;84.03;96072.25;5013992;28;20045;-76
2021/07/12 05:20:05;;;;;;;12.27;7.35;;;;;;;15.24;83.89;96066.31;5013727;28;20073;-74
2021/07/12 05:22:31;;;;;;;10.77;7.78;;;;;;;15.29;83.90;96063.28;5013984;28;20057;-75
2021/07/12 05:24:58;;;;;;;11.18;7.50;;;;;;;15.33;83.80;96066.13;5013919;28;20042;-76
2021/07/12 05:27:25;;;;;;;9.90;6.70;;;;;;;15.37;83.67;96059.59;5013648;28;20524;-75
2021/07/12 05:29:52;;;;;;;11.55;7.80;;;;;;;15.44;83.88;96060.91;5014039;28;20061;-75
2021/07/12 05:32:19;;;;;;;10.68;7.07;;;;;;;15.42;82.86;96057.72;5013670;28;20049;-75
2021/07/12 05:34:45;;;;;;;11.75;7.40;;;;;;;15.40;82.76;96066.31;5013944;28;20045;-77
2021/07/12 05:37:12;;;;;;;11.63;7.68;;;;;;;15.42;83.14;96064.00;5013431;28;20383;-76
2021/07/12 05:39:38;;;;;;;12.05;8.25;;;;;;;15.47;83.42;96060.19;5013558;28;20511;-75
2021/07/12 05:42:05;;;;;;;15.32;7.30;;;;;;;15.44;83.18;96063.63;5012776;28;20053;-74
2021/07/12 05:44:34;;;;;;;9.27;6.60;;;;;;;15.42;82.95;96063.22;5013308;28;20128;-76
2021/07/12 05:47:00;;;;;;;11.57;6.82;;;;;;;15.48;82.43;96064.53;5013740;28;20049;-75
2021/07/12 05:49:27;;;;;;;8.98;6.10;;;;;;;15.52;82.34;96065.41;5013442;28;20042;-75
2021/07/12 05:51:54;;;;;;;9.27;7.10;;;;;;;15.60;82.87;96064.41;5013490;28;20523;-76
2021/07/12 05:54:21;;;;;;;10.32;6.88;;;;;;;15.69;82.63;96076.03;5013377;28;20042;-75
2021/07/12 05:56:47;;;;;;;10.13;6.30;;;;;;;15.64;82.60;96073.56;5013361;28;20550;-75
2021/07/12 05:59:14;;;;;;;11.50;6.70;;;;;;;15.69;82.70;96073.28;5013006;28;20057;-76
2021/07/12 06:01:41;;;;;;;11.27;6.38;;;;;;;15.68;82.47;96079.94;5013417;28;20054;-75
2021/07/12 06:04:08;;;;;;;9.80;6.15;;;;;;;15.67;82.41;96081.09;5012962;28;20042;-74
2021/07/12 06:06:34;;;;;;;8.45;5.93;;;;;;;15.68;81.88;96082.66;5013341;28;20042;-76
2021/07/12 06:09:01;;;;;;;9.43;5.90;;;;;;;15.76;82.33;96081.66;5013225;28;20501;-75
2021/07/12 06:11:27;;;;;;;9.93;5.82;;;;;;;15.79;82.03;96078.22;5013196;28;20034;-76
2021/07/12 06:13:54;;;;;;;7.68;5.55;;;;;;;15.82;82.19;96069.28;5013243;28;20053;-74
2021/07/12 06:16:20;;;;;;;7.22;5.30;;;;;;;15.78;81.31;96060.16;5012432;28;20050;-75
2021/07/12 06:18:48;;;;;;;7.30;5.20;;;;;;;15.83;81.47;96062.63;5013223;28;20421;-75
2021/07/12 06:21:15;;;;;;;6.22;4.88;;;;;;;15.91;81.64;96058.06;5012597;28;20046;-75
2021/07/12 06:23:41;;;;;;;9.40;5.07;;;;;;;15.83;81.52;96057.13;5012949;28;20497;-75
2021/07/12 06:26:07;;;;;;;8.75;5.55;;;;;;;15.90;81.87;96051.78;5012547;28;20050;-74
2021/07/12 06:28:34;;;;;;;8.15;5.22;;;;;;;15.97;82.11;96056.63;5013005;28;20057;-75
2021/07/12 06:31:00;;;;;;;9.02;5.80;;;;;;;15.98;82.13;96040.97;5012955;28;20045;-75
2021/07/12 06:33:29;;;;;;;7.82;5.20;;;;;;;16.06;82.54;96045.44;5012400;28;20034;-74
2021/07/12 06:35:57;;;;;;;11.93;5.97;;;;;;;16.15;82.26;96040.53;5012719;28;20463;-74
2021/07/12 06:38:23;;;;;;;9.27;5.22;;;;;;;16.24;81.88;96034.84;5012240;28;20616;-75
2021/07/12 06:40:50;;;;;;;7.90;5.32;;;;;;;16.30;81.21;96025.94;5012690;28;20053;-75
2021/07/12 06:43:16;;;;;;;6.28;4.53;;;;;;;16.40;81.54;96030.84;5012171;28;20060;-76
2021/07/12 06:45:44;;;;;;;9.77;5.30;;;;;;;16.52;81.29;96026.34;5012515;28;20050;-75
2021/07/12 06:48:11;;;;;;;11.45;5.05;;;;;;;16.61;81.30;96024.16;5012132;28;20074;-74
2021/07/12 06:50:37;;;;;;;8.10;5.05;;;;;;;16.70;81.85;96022.75;5012594;28;20520;-75
2021/07/12 06:53:05;;;;;;;9.77;5.57;;;;;;;16.79;81.34;96019.00;5012178;28;20080;-74
2021/07/12 06:55:31;;;;;;;8.55;4.65;;;;;;;16.82;80.14;96012.78;5012068;28;20436;-76
2021/07/12 06:57:59;;;;;;;6.63;4.05;;;;;;;16.86;78.74;96011.69;5012485;28;20053;-75
2021/07/12 07:00:26;;;;;;;5.88;3.58;;;;;;;16.95;78.44;96017.72;5011888;28;20511;-75
2021/07/12 07:02:53;;;;;;;6.30;3.75;;;;;;;17.07;78.39;96007.66;5012075;28;20050;-74
2021/07/12 07:05:19;;;;;;;8.60;4.13;;;;;;;17.19;78.84;96015.75;5012046;28;20045;-75
2021/07/12 07:07:46;;;;;;;7.22;3.42;;;;;;;17.30;78.21;96011.19;5012045;28;20136;-75
2021/07/12 07:10:14;;;;;;;9.10;3.35;;;;;;;17.35;76.15;96012.84;5011650;28;20046;-74
2021/07/12 07:12:41;;;;;;;5.55;2.97;;;;;;;17.45;76.22;96007.50;5012050;28;20042;-75
2021/07/12 07:15:09;;;;;;;4.70;3.33;;;;;;;17.52;76.19;96008.75;5011657;28;20053;-74
2021/07/12 07:17:35;;;;;;;8.13;3.00;;;;;;;17.61;75.85;96009.31;5011775;28;20497;-76
2021/07/12 07:20:02;;;;;;;4.03;2.67;;;;;;;17.68;74.62;96012.13;5012118;28;20050;-75
2021/07/12 07:22:28;;;;;;;5.10;3.20;;;;;;;17.83;75.64;96007.66;5011672;28;20082;-75
2021/07/12 07:24:55;;;;;;;3.65;2.50;;;;;;;17.97;75.55;96000.38;5011956;28;20125;-75
2021/07/12 07:27:22;;;;;;;6.25;2.60;;;;;;;18.09;75.07;96001.31;5011456;28;20042;-75
2021/07/12 07:29:49;;;;;;;5.10;2.40;;;;;;;18.19;73.92;96001.44;5011668;28;20042;-75
2021/07/12 07:32:15;;;;;;;3.25;2.22;;;;;;;18.31;74.24;96003.13;5011557;28;20061;-75
2021/07/12 07:34:42;;;;;;;5.55;2.60;;;;;;;18.44;71.26;95995.41;5011912;28;20046;-75
2021/07/12 07:37:09;;;;;;;2.95;2.25;;;;;;;18.56;72.73;95995.13;5011224;28;20049;-74
2021/07/12 07:39:37;;;;;;;5.35;2.85;;;;;;;18.61;72.12;95988.50;5011473;28;20532;-75
2021/07/12 07:42:04;;;;;;;4.88;2.30;;;;;;;18.72;71.10;95994.94;5010983;28;20195;-76
2021/07/12 07:44:32;;;;;;;5.95;2.60;;;;;;;18.87;71.32;95985.63;5011382;28;20493;-75
2021/07/12 07:46:58;;;;;;;6.20;2.40;;;;;;;18.96;70.40;95982.56;5011638;28;20049;-75
2021/07/12 07:49:25;;;;;;;4.53;2.20;;;;;;;19.08;69.73;95986.97;5011311;28;20046;-75
2021/07/12 07:51:51;;;;;;;5.78;2.40;;;;;;;19.14;68.76;95993.72;5011516;28;20053;-75
2021/07/12 07:54:18;;;;;;;12.35;3.47;;;;;;;19.24;70.49;95993.00;5011361;28;20049;-76
2021/07/12 07:56:44;;;;;;;7.03;2.47;;;;;;;19.31;69.59;95987.53;5011639;28;20042;-76
2021/07/12 07:59:12;;;;;;;7.85;1.92;;;;;;;19.38;67.49;95984.84;5010880;28;20053;-75
2021/07/12 08:01:40;;;;;;;6.82;2.45;;;;;;;19.51;66.87;95986.09;5011535;28;20065;-76
2021/07/12 08:04:06;;;;;;;5.30;2.47;;;;;;;19.60;65.31;95982.25;5010976;28;20053;-74
2021/07/12 08:06:33;;;;;;;5.15;2.17;;;;;;;19.77;66.76;95976.81;5010799;28;20049;-75
2021/07/12 08:08:59;;;;;;;11.35;3.90;;;;;;;19.94;66.07;95985.56;5011337;28;20053;-75
2021/07/12 08:11:26;;;;;;;3.85;2.17;;;;;;;20.14;64.28;95983.31;5010978;28;20053;-75
2021/07/12 08:13:53;;;;;;;2.65;1.60;;;;;;;20.35;63.40;95983.38;5011154;28;20113;-75
2021/07/12 08:16:19;;;;;;;4.68;1.55;;;;;;;21.01;61.34;95969.28;5010588;28;20053;-75
2021/07/12 08:18:47;;;;;;;13.50;4.25;;;;;;;22.48;56.25;95972.53;5011526;28;20061;-76
2021/07/12 08:21:13;;;;;;;10.27;2.67;;;;;;;23.85;53.51;95971.88;5010946;28;20061;-75
2021/07/12 08:23:41;;;;;;;2.25;1.70;;;;;;;24.91;49.19;95965.38;5010999;28;20065;-74
2021/07/12 08:26:08;;;;;;;4.82;2.08;;;;;;;25.93;48.52;95964.06;5010882;28;20060;-75
2021/07/12 08:28:35;;;;;;;3.22;1.65;;;;;;;26.68;44.06;95962.56;5011315;28;20053;-75
2021/07/12 08:31:02;;;;;;;3.97;2.38;;;;;;;27.55;42.69;95965.66;5011120;28;20050;-75
2021/07/12 08:33:29;;;;;;;4.93;2.45;;;;;;;27.60;40.29;95959.53;5010910;28;20444;-75
2021/07/12 08:35:57;;;;;;;3.85;2.95;;;;;;;28.03;42.63;95959.25;5010848;28;20054;-75
2021/07/12 08:38:23;;;;;;;445.15;107.03;;;;;;;28.11;42.82;95959.81;5010564;28;20409;-74
2021/07/12 08:40:52;;;;;;;175.52;49.22;;;;;;;28.39;43.48;95947.03;5010864;28;20044;-73
2021/07/12 08:43:19;;;;;;;7.75;3.47;;;;;;;28.54;38.83;95947.41;5010322;28;20141;-74
2021/07/12 08:45:46;;;;;;;6.70;2.95;;;;;;;28.60;40.30;95948.41;5010882;28;20050;-74
2021/07/12 08:48:14;;;;;;;5.05;2.63;;;;;;;28.64;38.18;95943.47;5010500;28;20048;-73
2021/07/12 08:50:41;;;;;;;4.07;2.65;;;;;;;28.76;40.31;95937.09;5011163;28;20092;-74
2021/07/12 08:53:09;;;;;;;4.53;2.35;;;;;;;28.64;39.21;95939.91;5010292;28;20041;-73
2021/07/12 08:55:36;;;;;;;3.80;2.40;;;;;;;28.47;40.78;95931.59;5010917;28;20141;-73
2021/07/12 08:58:09;;;;;;;3.05;2.30;;;;;;;27.95;38.58;95932.66;5010235;28;20050;-73
2021/07/12 09:00:38;;;;;;;3.85;2.70;;;;;;;27.46;41.33;95931.94;5011065;28;20042;-74
2021/07/12 09:03:18;;;;;;;3.60;2.33;;;;;;;26.99;43.72;95932.28;5010224;28;20516;-73
2021/07/12 09:05:56;;;;;;;3.65;2.30;;;;;;;26.61;42.95;95921.59;5010804;28;20546;-73
2021/07/12 09:08:54;;;;;;;4.70;2.33;;;;;;;26.29;44.82;95920.28;5010196;28;20132;-74
2021/07/12 09:11:30;;;;;;;4.57;2.65;;;;;;;25.91;47.06;95925.44;4986870;28;20076;-73
2021/07/12 09:13:59;;;;;;;3.30;2.08;;;;;;;25.62;43.11;95916.03;5010749;28;20448;-73
2021/07/12 09:16:40;;;;;;;3.55;2.35;;;;;;;25.33;48.24;95916.56;5010364;28;20057;-72
2021/07/12 09:19:16;;;;;;;4.25;2.30;;;;;;;25.12;46.16;95922.50;5012641;28;20524;-72
2021/07/12 09:21:44;;;;;;;3.65;2.00;;;;;;;24.98;44.28;95918.69;5014403;28;20050;-73
2021/07/12 09:24:25;;;;;;;4.22;2.30;;;;;;;24.96;49.57;95914.78;5013740;28;20049;-74
2021/07/12 09:26:55;;;;;;;5.72;2.10;;;;;;;24.96;47.60;95906.41;5013928;28;20533;-73
2021/07/12 09:29:25;;;;;;;7.35;2.38;;;;;;;24.90;47.17;95899.72;5013524;28;20038;-73
2021/07/12 09:31:53;;;;;;;6.07;2.15;;;;;;;24.88;51.56;95896.59;5014139;28;20053;-73
2021/07/12 09:34:20;;;;;;;4.43;2.25;;;;;;;24.93;47.10;95884.97;5013358;28;20685;-73
2021/07/12 09:36:47;;;;;;;3.88;2.30;;;;;;;24.88;47.89;95891.81;5013890;28;20057;-73
2021/07/12 09:39:21;;;;;;;5.30;2.70;;;;;;;24.82;46.86;95893.50;5013405;28;20048;-73
2021/07/12 09:41:49;;;;;;;4.10;2.13;;;;;;;24.81;47.61;95891.13;5013716;28;20053;-74
2021/07/12 09:44:18;;;;;;;4.40;2.67;;;;;;;24.79;45.12;95896.31;5013266;28;20080;-72
2021/07/12 09:46:44;;;;;;;5.72;2.60;;;;;;;24.77;45.84;95890.41;5013716;28;20037;-72
2021/07/12 09:49:12;;;;;;;4.55;2.53;;;;;;;24.85;47.53;95880.72;5013250;28;20068;-72
2021/07/12 09:51:38;;;;;;;5.72;3.20;;;;;;;24.96;48.21;95886.91;5013421;28;20053;-72
2021/07/12 09:54:19;;;;;;;7.15;2.70;;;;;;;25.04;48.57;95876.44;5013207;28;20077;-72
2021/07/12 09:56:47;;;;;;;4.97;2.60;;;;;;;25.13;45.86;95885.84;5013381;28;20408;-73
2021/07/12 09:59:14;;;;;;;4.45;2.58;;;;;;;25.16;47.27;95884.19;5012909;28;20050;-73
2021/07/12 10:01:46;;;;;;;4.32;2.50;;;;;;;25.09;46.36;95885.13;5013551;28;20052;-73
2021/07/12 10:04:13;;;;;;;6.80;2.55;;;;;;;25.15;46.75;95883.41;5012974;28;20046;-73
2021/07/12 10:06:40;;;;;;;6.90;2.95;;;;;;;25.22;48.87;95883.31;5013038;28;20512;-74
2021/07/12 10:09:08;;;;;;;4.78;2.80;;;;;;;25.27;45.46;95878.44;5012812;28;20050;-73
2021/07/12 10:11:36;;;;;;;5.05;2.78;;;;;;;25.32;44.36;95881.53;5013139;28;20066;-73
2021/07/12 10:14:04;;;;;;;4.93;2.67;;;;;;;25.29;43.87;95874.03;5012752;28;20054;-72
2021/07/12 10:16:31;;;;;;;4.47;2.70;;;;;;;25.24;44.00;95874.50;5013082;28;20072;-73
2021/07/12 10:18:58;;;;;;;5.60;2.72;;;;;;;25.31;46.28;95879.16;5013057;28;20524;-74
2021/07/12 10:21:24;;;;;;;2.58;1.80;;;;;;;25.29;42.94;95873.25;5012782;28;20046;-73
2021/07/12 10:23:56;;;;;;;4.55;2.20;;;;;;;25.34;45.70;95872.75;5013085;28;20042;-73
2021/07/12 10:26:48;;;;;;;6.30;2.30;;;;;;;25.36;46.52;95867.53;5012455;28;20096;-73
2021/07/12 10:29:16;;;;;;;4.32;2.13;;;;;;;25.42;45.28;95863.03;5012032;28;20061;-73
2021/07/12 10:31:58;;;;;;;6.35;2.40;;;;;;;25.39;50.94;95847.97;5012883;28;20045;-73
2021/07/12 10:34:26;;;;;;;4.55;2.10;;;;;;;25.44;45.14;95860.63;5012583;28;20046;-73
2021/07/12 10:36:59;;;;;;;2.92;1.90;;;;;;;25.49;44.92;95851.75;5012845;28;20512;-73
2021/07/12 10:39:59;;;;;;;4.88;2.20;;;;;;;25.49;42.66;95846.19;5012064;28;20076;-73
2021/07/12 10:42:48;;;;;;;4.00;1.92;;;;;;;25.46;46.34;95844.25;5012471;28;20416;-73
2021/07/12 10:45:16;;;;;;;6.93;1.95;;;;;;;25.43;44.49;95845.13;5012171;28;20054;-73
2021/07/12 10:47:44;;;;;;;4.38;2.33;;;;;;;25.39;45.46;95844.38;5012617;28;20049;-73
2021/07/12 10:50:39;;;;;;;4.35;1.83;;;;;;;25.46;46.63;95838.66;5012246;28;20053;-73
2021/07/12 10:53:36;;;;;;;4.75;2.33;;;;;;;25.57;46.94;95836.44;5012109;28;20049;-72
2021/07/12 10:56:07;;;;;;;4.57;2.00;;;;;;;25.63;45.36;95828.38;5011927;28;20521;-72
2021/07/12 10:59:01;;;;;;;6.05;1.92;;;;;;;25.62;43.35;95822.00;5012652;28;20129;-73
2021/07/12 11:01:45;;;;;;;12.15;9.95;;;;;;;25.55;43.19;95827.75;5012311;28;20085;-73
2021/07/12 11:04:35;;;;;;;4.53;1.80;;;;;;;25.53;43.61;95832.97;5011916;28;20046;-73
2021/07/12 11:07:03;;;;;;;4.15;1.55;;;;;;;25.48;41.19;95839.81;5012121;28;20049;-73
2021/07/12 11:09:49;;;;;;;3.95;1.80;;;;;;;25.45;44.94;95839.88;5012008;28;20448;-72
2021/07/12 11:12:31;;;;;;;5.00;1.65;;;;;;;25.44;41.04;95838.31;5011681;28;20053;-73
2021/07/12 11:15:14;;;;;;;2.72;1.38;;;;;;;25.48;47.63;95839.81;5012059;28;20057;-73
2021/07/12 11:18:08;;;;;;;3.95;1.60;;;;;;;25.54;41.80;95830.97;5012100;28;20048;-72
2021/07/12 11:21:01;;;;;;;5.10;1.70;;;;;;;25.58;48.47;95831.66;5010260;28;20049;-73
2021/07/12 11:23:51;;;;;;;3.67;1.70;;;;;;;25.70;45.25;95829.03;5011726;28;20100;-74
2021/07/12 11:26:38;;;;;;;3.75;1.65;;;;;;;25.76;44.32;95824.53;5011555;28;20049;-74
2021/07/12 11:29:13;;;;;;;6.25;1.77;;;;;;;25.80;46.43;95821.69;5011569;28;20072;-73
2021/07/12 11:31:42;;;;;;;3.35;1.30;;;;;;;25.80;40.00;95820.91;5011985;28;20069;-75
2021/07/12 11:34:14;;;;;;;3.92;1.55;;;;;;;25.81;44.59;95816.91;5011123;28;20045;-75
2021/07/12 11:36:40;;;;;;;4.88;1.73;;;;;;;25.77;43.41;95808.59;5011576;28;20069;-75
2021/07/12 11:39:07;;;;;;;6.53;2.10;;;;;;;25.86;43.26;95808.03;5010716;28;20640;-74
2021/07/12 11:41:34;;;;;;;3.60;1.50;;;;;;;25.90;46.78;95808.75;5010992;28;20041;-74